createdAt,value
2023-02-15T00:00:17.144Z,19.90
2023-02-15T00:02:45.186Z,18.00
2023-02-15T00:05:13.159Z,18.00
2023-02-15T00:07:41.725Z,17.83
2023-02-15T00:10:12.934Z,16.90
2023-02-15T00:12:42.271Z,18.37
2023-02-15T00:15:12.274Z,14.23
2023-02-15T00:17:40.287Z,17.70
2023-02-15T00:20:09.898Z,19.27
2023-02-15T00:22:37.901Z,18.30
2023-02-15T00:25:06.930Z,19.57
2023-02-15T00:27:35.729Z,18.17
2023-02-15T00:30:06.716Z,16.10
2023-02-15T00:32:34.713Z,19.80
2023-02-15T00:35:02.695Z,18.10
2023-02-15T00:37:30.807Z,14.40
2023-02-15T00:39:58.937Z,17.17
2023-02-15T00:42:26.885Z,17.90
2023-02-15T00:44:54.880Z,19.43
2023-02-15T00:47:26.182Z,18.30
2023-02-15T00:49:54.144Z,18.20
2023-02-15T00:52:22.134Z,17.40
2023-02-15T00:54:50.134Z,16.23
2023-02-15T00:57:18.082Z,19.60
2023-02-15T00:59:46.083Z,18.40
2023-02-15T01:02:14.302Z,19.60
2023-02-15T01:04:43.806Z,19.37
2023-02-15T01:07:11.759Z,16.73
2023-02-15T01:09:39.735Z,18.80
2023-02-15T01:12:07.801Z,16.90
2023-02-15T01:14:35.722Z,17.70
2023-02-15T01:17:03.752Z,15.80
2023-02-15T01:19:31.693Z,20.90
2023-02-15T01:22:01.003Z,14.80
2023-02-15T01:24:29.032Z,15.50
2023-02-15T01:26:57.049Z,15.37
2023-02-15T01:29:25.032Z,14.47
2023-02-15T01:31:53.052Z,14.40
2023-02-15T01:34:21.090Z,14.27
2023-02-15T01:36:49.159Z,13.87
2023-02-15T01:39:18.738Z,14.43
2023-02-15T01:41:46.728Z,12.77
2023-02-15T01:44:51.413Z,12.40
2023-02-15T01:47:34.434Z,15.57
2023-02-15T01:50:11.642Z,14.63
2023-02-15T01:52:52.208Z,14.33
2023-02-15T01:55:23.081Z,14.10
2023-02-15T01:57:54.764Z,14.77
2023-02-15T02:00:25.561Z,16.13
2023-02-15T02:02:57.538Z,14.57
2023-02-15T02:05:25.820Z,17.10
2023-02-15T02:07:57.194Z,14.77
2023-02-15T02:10:28.418Z,15.03
2023-02-15T02:13:02.367Z,16.40
2023-02-15T02:15:42.984Z,16.70
2023-02-15T02:18:32.126Z,15.83
2023-02-15T02:21:37.368Z,19.93
2023-02-15T02:24:47.708Z,17.20
2023-02-15T02:27:40.946Z,19.80
2023-02-15T02:30:40.501Z,18.20
2023-02-15T02:33:33.301Z,18.57
2023-02-15T02:36:18.855Z,18.67
2023-02-15T02:39:06.689Z,16.73
2023-02-15T02:41:42.824Z,21.93
2023-02-15T02:44:19.919Z,16.93
2023-02-15T02:46:53.570Z,16.40
2023-02-15T02:49:33.553Z,15.27
2023-02-15T02:52:02.844Z,16.70
2023-02-15T02:54:32.016Z,16.20
2023-02-15T02:57:05.209Z,18.07
2023-02-15T02:59:38.207Z,16.80
2023-02-15T03:02:13.812Z,18.93
2023-02-15T03:04:49.961Z,17.23
2023-02-15T03:07:26.840Z,20.40
2023-02-15T03:09:57.496Z,18.60
2023-02-15T03:12:31.168Z,17.00
2023-02-15T03:15:04.670Z,20.00
2023-02-15T03:17:36.039Z,18.83
2023-02-15T03:20:11.978Z,21.47
2023-02-15T03:22:46.953Z,21.27
2023-02-15T03:25:20.701Z,18.30
2023-02-15T03:27:52.692Z,15.83
2023-02-15T03:30:24.084Z,18.90
2023-02-15T03:32:54.116Z,17.43
2023-02-15T03:35:28.037Z,20.23
2023-02-15T03:38:01.467Z,16.33
2023-02-15T03:40:47.784Z,21.47
2023-02-15T03:43:20.902Z,20.23
2023-02-15T03:45:56.448Z,17.40
2023-02-15T03:48:29.525Z,19.43
2023-02-15T03:51:22.073Z,17.57
2023-02-15T03:53:52.267Z,18.80
2023-02-15T03:56:20.250Z,23.40
2023-02-15T03:59:05.798Z,31.37
2023-02-15T04:01:59.912Z,22.50
2023-02-15T04:04:35.277Z,21.67
2023-02-15T04:07:07.069Z,18.87
2023-02-15T04:09:52.663Z,27.47
2023-02-15T04:12:20.826Z,18.20
2023-02-15T04:15:06.518Z,28.83
2023-02-15T04:17:34.751Z,19.13
2023-02-15T04:20:20.277Z,27.43
2023-02-15T04:23:07.078Z,23.50
2023-02-15T04:25:35.024Z,27.30
2023-02-15T04:28:03.028Z,24.07
2023-02-15T04:30:31.218Z,25.50
2023-02-15T04:32:59.240Z,26.40
2023-02-15T04:35:27.628Z,22.70
2023-02-15T04:37:57.743Z,26.83
2023-02-15T04:40:25.754Z,29.67
2023-02-15T04:42:53.922Z,22.13
2023-02-15T04:45:21.956Z,22.40
2023-02-15T04:47:50.375Z,22.57
2023-02-15T04:50:18.753Z,20.80
2023-02-15T04:52:47.111Z,17.37
2023-02-15T04:55:16.704Z,28.73
2023-02-15T04:57:44.740Z,21.70
2023-02-15T05:00:13.844Z,22.73
2023-02-15T05:02:41.800Z,29.10
2023-02-15T05:05:13.808Z,28.03
2023-02-15T05:07:41.776Z,21.10
2023-02-15T05:10:10.848Z,23.50
2023-02-15T05:12:40.170Z,20.13
2023-02-15T05:15:09.039Z,28.10
2023-02-15T05:17:37.066Z,28.70
2023-02-15T05:20:06.738Z,27.27
2023-02-15T05:22:34.801Z,21.40
2023-02-15T05:25:20.509Z,26.13
2023-02-15T05:28:07.397Z,30.83
2023-02-15T05:30:35.565Z,25.70
2023-02-15T05:33:03.579Z,26.47
2023-02-15T05:35:31.557Z,27.53
2023-02-15T05:37:59.560Z,35.03
2023-02-15T05:40:27.664Z,26.83
2023-02-15T05:42:57.879Z,29.83
2023-02-15T05:45:26.311Z,19.17
2023-02-15T05:47:54.494Z,26.07
2023-02-15T05:50:22.536Z,18.60
2023-02-15T05:52:52.462Z,19.80
2023-02-15T05:55:21.063Z,19.73
2023-02-15T05:57:49.045Z,35.80
2023-02-15T06:00:24.977Z,31.23
2023-02-15T06:02:55.943Z,16.67
2023-02-15T06:05:27.753Z,28.20
2023-02-15T06:07:55.981Z,22.30
2023-02-15T06:10:24.037Z,30.27
2023-02-15T06:12:52.062Z,28.17
2023-02-15T06:15:21.425Z,34.57
2023-02-15T06:17:49.430Z,34.50
2023-02-15T06:20:17.733Z,21.43
2023-02-15T06:22:45.747Z,22.00
2023-02-15T06:25:16.460Z,17.27
2023-02-15T06:27:45.178Z,18.57
2023-02-15T06:30:15.262Z,18.23
2023-02-15T06:32:44.601Z,27.37
2023-02-15T06:35:12.618Z,25.40
2023-02-15T06:37:41.063Z,16.00
2023-02-15T06:40:10.873Z,17.37
2023-02-15T06:42:38.948Z,18.77
2023-02-15T06:45:08.463Z,17.57
2023-02-15T06:47:36.790Z,15.80
2023-02-15T06:50:11.577Z,16.03
2023-02-15T06:52:39.773Z,15.23
2023-02-15T06:55:08.488Z,21.30
2023-02-15T06:57:36.449Z,16.63
2023-02-15T07:00:06.985Z,23.60
2023-02-15T07:02:35.053Z,19.90
2023-02-15T07:05:03.673Z,14.30
2023-02-15T07:07:33.208Z,19.10
2023-02-15T07:10:01.208Z,15.47
2023-02-15T07:12:43.497Z,20.00
2023-02-15T07:15:12.889Z,16.50
2023-02-15T07:17:41.453Z,13.50
2023-02-15T07:20:12.795Z,12.73
2023-02-15T07:22:42.336Z,12.67
2023-02-15T07:25:12.699Z,14.37
2023-02-15T07:27:41.552Z,19.17
2023-02-15T07:30:12.714Z,18.37
2023-02-15T07:33:04.228Z,15.30
2023-02-15T07:35:33.000Z,14.47
2023-02-15T07:38:02.596Z,15.43
2023-02-15T07:40:30.630Z,14.50
2023-02-15T07:43:00.580Z,14.10
2023-02-15T07:45:28.823Z,13.43
2023-02-15T07:47:56.807Z,18.00
2023-02-15T07:50:24.876Z,12.60
2023-02-15T07:52:52.856Z,12.73
2023-02-15T07:55:22.257Z,12.77
2023-02-15T07:57:51.896Z,10.60
2023-02-15T08:00:25.595Z,9.80
2023-02-15T08:03:09.849Z,12.50
2023-02-15T08:05:38.304Z,12.57
2023-02-15T08:08:06.650Z,12.90
2023-02-15T08:10:55.321Z,10.90
2023-02-15T08:13:23.314Z,12.23
2023-02-15T08:15:53.030Z,10.27
2023-02-15T08:18:22.906Z,12.57
2023-02-15T08:20:52.132Z,12.53
2023-02-15T08:23:20.321Z,10.80
2023-02-15T08:25:49.650Z,10.27
2023-02-15T08:28:17.798Z,9.20
2023-02-15T08:30:45.883Z,8.43
2023-02-15T08:33:13.821Z,11.03
2023-02-15T08:35:41.810Z,9.57
2023-02-15T08:38:09.762Z,9.00
2023-02-15T08:40:38.967Z,9.20
2023-02-15T08:43:08.289Z,9.37
2023-02-15T08:45:36.289Z,7.93
2023-02-15T08:48:04.682Z,7.17
2023-02-15T08:50:32.648Z,8.50
2023-02-15T08:53:00.627Z,11.23
2023-02-15T08:55:29.167Z,8.53
2023-02-15T08:57:57.225Z,9.00
2023-02-15T09:00:31.297Z,12.67
2023-02-15T09:02:59.570Z,10.10
2023-02-15T09:05:27.599Z,9.33
2023-02-15T09:07:55.624Z,11.43
2023-02-15T09:10:23.651Z,8.97
2023-02-15T09:12:52.142Z,13.47
2023-02-15T09:15:20.198Z,10.57
2023-02-15T09:17:49.529Z,10.20
2023-02-15T09:20:17.697Z,9.03
2023-02-15T09:22:45.699Z,8.73
2023-02-15T09:25:14.622Z,8.10
2023-02-15T09:27:43.103Z,7.63
2023-02-15T09:30:13.014Z,9.13
2023-02-15T09:32:41.513Z,8.57
2023-02-15T09:35:11.008Z,8.67
2023-02-15T09:37:39.004Z,13.80
2023-02-15T09:40:08.509Z,9.27
2023-02-15T09:43:12.623Z,12.53
2023-02-15T09:46:07.399Z,10.13
2023-02-15T09:48:41.933Z,8.27
2023-02-15T09:51:46.437Z,15.23
2023-02-15T09:54:38.183Z,14.10
2023-02-15T09:57:18.657Z,10.33
2023-02-15T09:59:58.943Z,10.23
2023-02-15T10:02:46.149Z,11.30
2023-02-15T10:05:29.025Z,13.27
2023-02-15T10:08:31.496Z,14.67
2023-02-15T10:11:28.793Z,11.47
2023-02-15T10:14:15.526Z,13.30
2023-02-15T10:16:57.101Z,11.67
2023-02-15T10:19:35.829Z,12.40
2023-02-15T10:22:19.305Z,13.37
2023-02-15T10:25:19.335Z,11.20
2023-02-15T10:27:50.340Z,12.20
2023-02-15T10:30:23.208Z,20.70
2023-02-15T10:33:01.661Z,10.37
2023-02-15T10:35:43.476Z,8.73
2023-02-15T10:38:23.050Z,12.70
2023-02-15T10:41:10.831Z,11.27
2023-02-15T10:43:56.054Z,11.40
2023-02-15T10:46:42.684Z,10.53
2023-02-15T10:49:32.423Z,9.07
2023-02-15T10:52:19.108Z,11.17
2023-02-15T10:54:52.050Z,10.70
2023-02-15T10:57:32.235Z,10.60
2023-02-15T11:00:12.255Z,10.30
2023-02-15T11:03:08.693Z,10.83
2023-02-15T11:05:44.333Z,12.43
2023-02-15T11:08:13.912Z,10.73
2023-02-15T11:10:49.835Z,10.10
2023-02-15T11:13:21.097Z,11.90
2023-02-15T11:15:54.591Z,12.57
2023-02-15T11:18:29.811Z,10.53
2023-02-15T11:21:03.404Z,10.53
2023-02-15T11:23:34.332Z,10.40
2023-02-15T11:26:04.844Z,10.33
2023-02-15T11:28:41.462Z,9.80
2023-02-15T11:31:18.856Z,9.87
2023-02-15T11:33:52.576Z,12.13
2023-02-15T11:36:26.282Z,9.80
2023-02-15T11:39:04.686Z,11.27
2023-02-15T11:41:39.791Z,10.47
2023-02-15T11:44:17.170Z,11.00
2023-02-15T11:46:45.266Z,10.60
2023-02-15T11:49:25.591Z,12.57
2023-02-15T11:51:54.968Z,11.97
2023-02-15T11:54:28.807Z,10.70
2023-02-15T11:56:59.394Z,12.83
2023-02-15T11:59:34.763Z,11.33
2023-02-15T12:02:03.074Z,11.73
2023-02-15T12:04:36.781Z,10.83
2023-02-15T12:07:16.978Z,11.63
2023-02-15T12:09:52.903Z,11.90
2023-02-15T12:12:27.038Z,12.00
2023-02-15T12:14:58.359Z,10.70
2023-02-15T12:17:28.852Z,12.07
2023-02-15T12:20:00.229Z,11.10
2023-02-15T12:22:32.549Z,12.37
2023-02-15T12:25:03.589Z,11.60
2023-02-15T12:27:34.702Z,11.70
2023-02-15T12:30:09.418Z,12.83
2023-02-15T12:32:50.368Z,12.27
2023-02-15T12:35:29.933Z,11.10
2023-02-15T12:38:03.336Z,11.93
2023-02-15T12:40:34.194Z,11.03
2023-02-15T12:43:09.364Z,12.20
2023-02-15T12:45:40.242Z,14.13
2023-02-15T12:48:17.887Z,12.83
2023-02-15T12:50:54.680Z,13.80
2023-02-15T12:53:25.410Z,13.07
2023-02-15T12:55:56.988Z,12.83
2023-02-15T12:58:27.143Z,15.87
2023-02-15T13:01:16.486Z,14.13
2023-02-15T13:03:59.717Z,15.20
2023-02-15T13:06:29.034Z,13.07
2023-02-15T13:09:00.489Z,16.13
2023-02-15T13:11:34.970Z,13.90
2023-02-15T13:14:05.520Z,13.40
2023-02-15T13:16:39.518Z,14.17
2023-02-15T13:19:14.329Z,12.87
2023-02-15T13:21:49.528Z,14.40
2023-02-15T13:24:24.392Z,14.07
2023-02-15T13:27:01.054Z,12.37
2023-02-15T13:29:39.418Z,10.33
2023-02-15T13:32:29.806Z,17.40
2023-02-15T13:35:01.973Z,11.57
2023-02-15T13:37:56.323Z,11.90
2023-02-15T13:40:29.475Z,13.20
2023-02-15T13:43:01.478Z,13.33
2023-02-15T13:45:41.750Z,11.70
2023-02-15T13:48:21.105Z,11.43
2023-02-15T13:51:10.341Z,12.10
2023-02-15T13:54:10.640Z,10.97
2023-02-15T13:56:52.169Z,11.53
2023-02-15T13:59:45.815Z,12.27
2023-02-15T14:02:40.822Z,12.93
2023-02-15T14:05:27.957Z,12.90
2023-02-15T14:08:08.662Z,12.43
2023-02-15T14:10:53.525Z,12.53
2023-02-15T14:14:00.715Z,12.57
2023-02-15T14:16:44.287Z,14.03
2023-02-15T14:19:22.633Z,11.67
2023-02-15T14:22:00.380Z,13.20
2023-02-15T14:24:35.817Z,13.13
2023-02-15T14:27:19.032Z,11.73
2023-02-15T14:29:53.495Z,11.20
2023-02-15T14:32:30.193Z,14.03
2023-02-15T14:35:01.770Z,13.03
2023-02-15T14:37:51.231Z,13.60
2023-02-15T14:40:50.824Z,14.13
2023-02-15T14:43:29.991Z,14.57
2023-02-15T14:46:03.311Z,14.30
2023-02-15T14:48:34.263Z,13.67
2023-02-15T14:51:02.706Z,14.03
2023-02-15T14:53:50.143Z,14.23
2023-02-15T14:56:24.887Z,13.73
2023-02-15T14:59:19.411Z,12.70
2023-02-15T15:02:10.463Z,13.00
2023-02-15T15:04:43.617Z,11.47
2023-02-15T15:07:20.735Z,12.60
2023-02-15T15:10:02.055Z,11.87
2023-02-15T15:12:41.586Z,14.73
2023-02-15T15:15:15.089Z,14.70
2023-02-15T15:18:02.319Z,13.70
2023-02-15T15:20:46.350Z,13.67
2023-02-15T15:23:46.536Z,14.30
2023-02-15T15:26:29.894Z,13.70
2023-02-15T15:29:08.578Z,14.50
2023-02-15T15:31:53.687Z,13.23
2023-02-15T15:35:02.061Z,13.87
2023-02-15T15:38:13.215Z,14.40
2023-02-15T15:41:18.622Z,13.20
2023-02-15T15:44:44.709Z,14.13
2023-02-15T15:47:44.678Z,13.10
2023-02-15T15:50:17.470Z,14.40
2023-02-15T15:52:50.117Z,13.47
2023-02-15T15:55:20.722Z,12.87
2023-02-15T15:57:52.389Z,14.47
2023-02-15T16:00:37.702Z,15.23
2023-02-15T16:03:06.504Z,14.13
2023-02-15T16:05:39.436Z,14.27
2023-02-15T16:08:08.176Z,14.27
2023-02-15T16:10:38.841Z,15.50
2023-02-15T16:13:08.668Z,15.50
2023-02-15T16:15:50.262Z,16.70
2023-02-15T16:18:21.069Z,17.07
2023-02-15T16:20:54.985Z,17.40
2023-02-15T16:24:03.991Z,16.67
2023-02-15T16:26:55.409Z,16.70
2023-02-15T16:29:31.425Z,13.73
2023-02-15T16:32:04.407Z,15.00
2023-02-15T16:34:33.563Z,14.87
2023-02-15T16:37:22.822Z,14.17
2023-02-15T16:39:51.759Z,16.77
2023-02-15T16:42:20.753Z,14.70
2023-02-15T16:44:53.358Z,16.13
2023-02-15T16:47:28.126Z,15.97
2023-02-15T16:49:59.938Z,16.50
2023-02-15T16:52:29.971Z,15.77
2023-02-15T16:55:00.596Z,17.07
2023-02-15T16:57:32.378Z,16.67
2023-02-15T17:00:07.222Z,17.33
2023-02-15T17:02:54.912Z,18.17
2023-02-15T17:05:24.908Z,16.77
2023-02-15T17:08:08.225Z,17.90
2023-02-15T17:10:42.520Z,17.00
2023-02-15T17:13:13.577Z,16.03
2023-02-15T17:15:43.653Z,19.00
2023-02-15T17:18:19.333Z,18.30
2023-02-15T17:20:49.842Z,16.27
2023-02-15T17:23:28.701Z,15.93
2023-02-15T17:25:57.306Z,16.97
2023-02-15T17:28:29.323Z,19.33
2023-02-15T17:30:59.054Z,18.20
2023-02-15T17:33:40.268Z,17.80
2023-02-15T17:36:12.334Z,20.30
2023-02-15T17:38:43.586Z,16.77
2023-02-15T17:41:11.616Z,16.47
2023-02-15T17:43:39.609Z,19.63
2023-02-15T17:46:07.713Z,19.00
2023-02-15T17:48:38.926Z,20.33
2023-02-15T17:51:12.064Z,18.40
2023-02-15T17:53:40.493Z,20.90
2023-02-15T17:56:10.519Z,20.50
2023-02-15T17:58:39.342Z,19.43
2023-02-15T18:01:32.905Z,19.40
2023-02-15T18:04:20.061Z,20.80
2023-02-15T18:07:05.584Z,18.77
2023-02-15T18:09:51.038Z,20.07
2023-02-15T18:12:23.732Z,19.00
2023-02-15T18:14:54.127Z,19.20
2023-02-15T18:17:28.626Z,21.30
2023-02-15T18:19:58.226Z,21.77
2023-02-15T18:22:26.260Z,21.00
2023-02-15T18:24:54.273Z,21.43
2023-02-15T18:27:22.455Z,23.27
2023-02-15T18:29:50.676Z,20.10
2023-02-15T18:32:23.775Z,21.37
2023-02-15T18:34:52.223Z,23.40
2023-02-15T18:37:23.524Z,25.00
2023-02-15T18:39:54.222Z,17.87
2023-02-15T18:42:27.037Z,21.83
2023-02-15T18:44:58.376Z,19.93
2023-02-15T18:47:27.772Z,23.00
2023-02-15T18:49:56.079Z,21.27
2023-02-15T18:52:35.862Z,17.10
2023-02-15T18:55:14.085Z,18.87
2023-02-15T18:57:44.745Z,18.07
2023-02-15T19:00:18.494Z,27.23
2023-02-15T19:02:47.001Z,19.20
2023-02-15T19:05:16.132Z,20.50
2023-02-15T19:07:48.451Z,19.57
2023-02-15T19:10:19.399Z,20.23
2023-02-15T19:12:47.951Z,19.53
2023-02-15T19:15:17.577Z,19.30
2023-02-15T19:17:45.800Z,16.60
2023-02-15T19:20:19.468Z,19.70
2023-02-15T19:22:50.599Z,22.20
2023-02-15T19:25:22.119Z,20.37
2023-02-15T19:27:50.455Z,17.90
2023-02-15T19:30:21.014Z,17.37
2023-02-15T19:32:50.114Z,20.07
2023-02-15T19:35:22.299Z,23.47
2023-02-15T19:37:55.459Z,22.30
2023-02-15T19:40:25.955Z,18.63
2023-02-15T19:42:54.696Z,25.87
2023-02-15T19:45:25.347Z,20.90
2023-02-15T19:47:55.006Z,22.20
2023-02-15T19:50:25.770Z,26.30
2023-02-15T19:52:55.221Z,23.50
2023-02-15T19:55:26.368Z,20.27
2023-02-15T19:57:56.360Z,25.60
2023-02-15T20:00:27.035Z,28.47
2023-02-15T20:02:56.681Z,17.67
2023-02-15T20:05:24.955Z,28.70
2023-02-15T20:07:55.019Z,23.47
2023-02-15T20:10:26.191Z,25.63
2023-02-15T20:12:54.999Z,26.70
2023-02-15T20:15:27.122Z,26.20
2023-02-15T20:17:56.723Z,19.97
2023-02-15T20:20:28.330Z,26.03
2023-02-15T20:22:57.746Z,25.10
2023-02-15T20:25:28.937Z,24.30
2023-02-15T20:27:59.258Z,23.67
2023-02-15T20:30:29.503Z,23.10
2023-02-15T20:32:58.003Z,22.67
2023-02-15T20:35:28.546Z,24.50
2023-02-15T20:38:00.712Z,23.57
2023-02-15T20:40:33.426Z,22.30
2023-02-15T20:43:01.688Z,27.73
2023-02-15T20:45:31.837Z,23.80
2023-02-15T20:48:01.793Z,26.43
2023-02-15T20:50:33.423Z,25.77
2023-02-15T20:53:03.600Z,22.53
2023-02-15T20:55:33.438Z,27.07
2023-02-15T20:58:01.773Z,19.73
2023-02-15T21:00:32.419Z,26.63
2023-02-15T21:03:02.213Z,24.90
2023-02-15T21:05:32.820Z,21.37
2023-02-15T21:08:02.830Z,21.63
2023-02-15T21:10:34.100Z,21.93
2023-02-15T21:13:04.485Z,22.47
2023-02-15T21:15:34.580Z,19.73
2023-02-15T21:18:04.706Z,29.00
2023-02-15T21:20:34.775Z,20.67
2023-02-15T21:23:06.134Z,23.77
2023-02-15T21:25:37.713Z,21.70
2023-02-15T21:28:08.392Z,22.27
2023-02-15T21:30:36.419Z,19.83
2023-02-15T21:33:04.622Z,21.50
2023-02-15T21:35:32.590Z,24.13
2023-02-15T21:38:00.614Z,23.30
2023-02-15T21:40:33.220Z,22.00
2023-02-15T21:43:18.952Z,20.47
2023-02-15T21:46:04.463Z,23.10
2023-02-15T21:48:32.510Z,21.10
2023-02-15T21:51:18.280Z,22.37
2023-02-15T21:53:47.890Z,19.83
2023-02-15T21:56:20.245Z,19.30
2023-02-15T21:58:48.684Z,20.00
2023-02-15T22:01:24.042Z,17.73
2023-02-15T22:03:53.906Z,18.27
2023-02-15T22:06:22.244Z,17.93
2023-02-15T22:08:50.364Z,16.60
2023-02-15T22:11:23.044Z,19.30
2023-02-15T22:13:52.032Z,18.57
2023-02-15T22:16:22.632Z,20.77
2023-02-15T22:18:50.748Z,19.47
2023-02-15T22:21:19.138Z,19.93
2023-02-15T22:23:47.653Z,17.83
2023-02-15T22:26:26.156Z,22.23
2023-02-15T22:28:54.434Z,20.30
2023-02-15T22:31:24.135Z,20.47
2023-02-15T22:33:52.250Z,21.00
2023-02-15T22:36:25.657Z,20.17
2023-02-15T22:38:54.068Z,20.23
2023-02-15T22:41:32.476Z,22.13
2023-02-15T22:44:00.994Z,22.17
2023-02-15T22:46:28.993Z,18.97
2023-02-15T22:48:57.017Z,20.90
2023-02-15T22:51:25.943Z,20.70
2023-02-15T22:53:54.151Z,19.00
2023-02-15T22:56:27.939Z,20.07
2023-02-15T22:59:03.233Z,19.60
2023-02-15T23:01:35.329Z,18.23
2023-02-15T23:04:04.216Z,18.73
2023-02-15T23:06:32.644Z,16.93
2023-02-15T23:09:01.250Z,16.33
2023-02-15T23:11:29.608Z,17.87
2023-02-15T23:13:58.932Z,23.60
2023-02-15T23:16:27.024Z,16.37
2023-02-15T23:18:55.008Z,19.47
2023-02-15T23:21:26.247Z,22.90
2023-02-15T23:23:56.796Z,21.20
2023-02-15T23:26:28.299Z,20.90
2023-02-15T23:28:59.706Z,15.27
2023-02-15T23:31:30.669Z,19.00
2023-02-15T23:34:00.740Z,18.77
2023-02-15T23:36:31.549Z,21.13
2023-02-15T23:39:23.382Z,19.77
2023-02-15T23:41:51.208Z,18.97
2023-02-15T23:44:20.868Z,17.97
2023-02-15T23:46:50.873Z,20.80
2023-02-15T23:49:20.817Z,23.67
2023-02-15T23:51:51.592Z,18.47
2023-02-15T23:54:21.815Z,23.97
2023-02-15T23:56:52.472Z,20.60
2023-02-15T23:59:25.328Z,21.90
